createdAt,value
2023-04-26T00:01:57.967Z,95705.78
2023-04-26T00:06:59.465Z,95709.38
2023-04-26T00:12:01.051Z,95708.47
2023-04-26T00:17:02.583Z,95714.84
2023-04-26T00:22:04.165Z,95720.00
2023-04-26T00:27:05.588Z,95719.31
2023-04-26T00:32:07.172Z,95720.28
2023-04-26T00:37:08.627Z,95717.06
2023-04-26T00:42:10.072Z,95710.94
2023-04-26T00:47:11.528Z,95718.53
2023-04-26T00:52:13.504Z,95723.13
2023-04-26T00:57:15.552Z,95723.47
2023-04-26T01:02:17.265Z,95719.59
2023-04-26T01:07:18.789Z,95727.53
2023-04-26T01:12:21.406Z,95725.47
2023-04-26T01:17:23.546Z,95720.44
2023-04-26T01:22:25.058Z,95717.56
2023-04-26T01:27:26.565Z,95715.75
2023-04-26T01:32:28.030Z,95705.50
2023-04-26T01:37:31.842Z,95707.31
2023-04-26T01:42:34.393Z,95708.88
2023-04-26T01:47:36.034Z,95714.66
2023-04-26T01:52:37.580Z,95716.19
2023-04-26T01:57:39.098Z,95708.28
2023-04-26T02:02:41.115Z,95708.69
2023-04-26T02:07:42.654Z,95702.84
2023-04-26T02:12:44.133Z,95700.22
2023-04-26T02:17:45.574Z,95687.84
2023-04-26T02:22:47.095Z,95684.66
2023-04-26T02:27:50.445Z,95682.22
2023-04-26T02:32:54.481Z,95683.84
2023-04-26T02:37:55.977Z,95675.41
2023-04-26T02:42:57.768Z,95683.94
2023-04-26T02:47:59.356Z,95689.72
2023-04-26T02:53:00.905Z,95676.53
2023-04-26T02:58:03.885Z,95679.91
2023-04-26T03:03:05.537Z,95684.50
2023-04-26T03:08:07.366Z,95689.47
2023-04-26T03:13:08.884Z,95693.31
2023-04-26T03:18:10.501Z,95686.69
2023-04-26T03:23:12.828Z,95690.69
2023-04-26T03:28:14.335Z,95679.28
2023-04-26T03:33:16.891Z,95674.84
2023-04-26T03:38:18.430Z,95685.03
2023-04-26T03:43:20.301Z,95685.47
2023-04-26T03:48:21.781Z,95679.81
2023-04-26T03:53:23.209Z,95679.88
2023-04-26T03:58:25.901Z,95681.03
2023-04-26T04:03:27.882Z,95678.34
2023-04-26T04:08:29.972Z,95668.91
2023-04-26T04:13:31.532Z,95681.03
2023-04-26T04:18:33.170Z,95670.91
2023-04-26T04:23:34.723Z,95687.31
2023-04-26T04:28:41.667Z,95688.22
2023-04-26T04:33:43.453Z,95692.38
2023-04-26T04:38:45.971Z,95691.00
2023-04-26T04:43:50.663Z,95693.63
2023-04-26T04:48:52.430Z,95693.03
2023-04-26T04:53:57.577Z,95691.53
2023-04-26T04:58:59.311Z,95689.59
2023-04-26T05:04:01.238Z,95694.16
2023-04-26T05:09:03.463Z,95684.13
2023-04-26T05:14:04.982Z,95696.25
2023-04-26T05:19:09.219Z,95708.19
2023-04-26T05:24:11.670Z,95714.91
2023-04-26T05:29:13.342Z,95714.75
2023-04-26T05:34:26.784Z,95716.66
2023-04-26T05:39:31.991Z,95718.97
2023-04-26T05:44:33.811Z,95712.00
2023-04-26T05:49:36.850Z,95713.66
2023-04-26T05:54:38.929Z,95712.28
2023-04-26T05:59:40.846Z,95719.09
2023-04-26T06:04:42.606Z,95711.13
2023-04-26T06:09:50.929Z,95709.19
2023-04-26T06:14:52.579Z,95718.66
2023-04-26T06:19:56.429Z,95717.88
2023-04-26T06:24:57.945Z,95720.28
2023-04-26T06:30:01.751Z,95720.69
2023-04-26T06:35:06.046Z,95728.63
2023-04-26T06:40:08.651Z,95723.22
2023-04-26T06:45:10.912Z,95722.09
2023-04-26T06:50:12.707Z,95731.94
2023-04-26T06:55:14.165Z,95725.00
2023-04-26T07:00:16.022Z,95732.06
2023-04-26T07:05:17.689Z,95727.16
2023-04-26T07:10:19.522Z,95722.19
2023-04-26T07:15:21.120Z,95714.25
2023-04-26T07:20:22.843Z,95717.44
2023-04-26T07:25:24.525Z,95705.75
2023-04-26T07:30:26.156Z,95712.13
2023-04-26T07:35:27.739Z,95708.75
2023-04-26T07:40:29.226Z,95699.63
2023-04-26T07:45:32.724Z,95699.75
2023-04-26T07:50:34.264Z,95698.50
2023-04-26T07:55:35.730Z,95699.44
2023-04-26T08:00:37.153Z,95692.94
2023-04-26T08:05:38.834Z,95687.66
2023-04-26T08:10:41.029Z,95688.44
2023-04-26T08:15:42.584Z,95691.69
2023-04-26T08:20:44.045Z,95683.88
2023-04-26T08:25:47.713Z,95682.41
2023-04-26T08:30:49.421Z,95677.78
2023-04-26T08:35:50.967Z,95683.31
2023-04-26T08:40:55.760Z,95685.97
2023-04-26T08:45:59.439Z,95682.91
2023-04-26T08:51:01.767Z,95682.47
2023-04-26T08:56:04.768Z,95677.34
2023-04-26T09:01:06.868Z,95681.00
2023-04-26T09:06:08.773Z,95679.31
2023-04-26T09:11:10.285Z,95685.69
2023-04-26T09:16:11.818Z,95691.16
2023-04-26T09:21:13.697Z,95686.00
2023-04-26T09:26:19.367Z,95686.66
2023-04-26T09:31:39.591Z,95686.16
2023-04-26T09:36:47.832Z,95681.00
2023-04-26T09:41:49.288Z,95684.19
2023-04-26T09:47:07.870Z,95673.41
2023-04-26T09:52:09.407Z,95675.88
2023-04-26T09:57:12.684Z,95683.59
2023-04-26T10:02:21.141Z,95673.56
2023-04-26T10:07:25.556Z,95673.56
2023-04-26T10:12:27.294Z,95657.88
2023-04-26T10:17:28.904Z,95660.66
2023-04-26T10:22:34.325Z,95663.84
2023-04-26T10:27:44.706Z,95665.25
2023-04-26T10:32:51.901Z,95662.03
2023-04-26T10:37:59.343Z,95653.34
2023-04-26T10:43:12.966Z,95646.81
2023-04-26T10:48:43.680Z,95635.66
2023-04-26T10:53:47.943Z,95630.94
2023-04-26T10:59:19.120Z,95630.41
2023-04-26T11:04:51.761Z,95621.41
2023-04-26T11:09:53.203Z,95626.56
2023-04-26T11:14:54.637Z,95621.25
2023-04-26T11:19:56.147Z,95614.66
2023-04-26T11:25:00.530Z,95610.28
2023-04-26T11:30:05.849Z,95612.84
2023-04-26T11:35:07.649Z,95609.88
2023-04-26T11:40:12.074Z,95600.47
2023-04-26T11:45:15.968Z,95602.22
2023-04-26T11:50:18.043Z,95597.66
2023-04-26T11:55:24.306Z,95592.47
2023-04-26T12:00:26.665Z,95597.66
2023-04-26T12:05:29.730Z,95590.94
2023-04-26T12:10:36.163Z,95591.78
2023-04-26T12:15:38.972Z,95592.91
2023-04-26T12:20:42.572Z,95611.38
2023-04-26T12:25:54.941Z,95605.28
2023-04-26T12:30:56.612Z,95606.88
2023-04-26T12:35:58.404Z,95609.75
2023-04-26T12:40:59.869Z,95615.53
2023-04-26T12:46:01.509Z,95611.63
2023-04-26T12:51:03.767Z,95600.31
2023-04-26T12:56:05.608Z,95605.88
2023-04-26T13:01:07.090Z,95601.34
2023-04-26T13:06:09.047Z,95612.66
2023-04-26T13:11:10.483Z,95598.28
2023-04-26T13:16:12.991Z,95603.63
2023-04-26T13:21:14.900Z,95594.38
2023-04-26T13:26:18.709Z,95596.94
2023-04-26T13:31:20.277Z,95590.28
2023-04-26T13:36:21.845Z,95584.22
2023-04-26T13:41:23.519Z,95585.66
2023-04-26T13:46:25.126Z,95576.50
2023-04-26T13:51:27.112Z,95575.88
2023-04-26T13:56:28.637Z,95568.09
2023-04-26T14:01:30.237Z,95554.56
2023-04-26T14:06:31.849Z,95553.38
2023-04-26T14:11:33.368Z,95558.34
2023-04-26T14:16:35.018Z,95552.78
2023-04-26T14:21:36.598Z,95558.75
2023-04-26T14:26:38.102Z,95550.84
2023-04-26T14:31:39.655Z,95551.31
2023-04-26T14:36:41.217Z,95555.25
2023-04-26T14:41:42.709Z,95547.44
2023-04-26T14:46:44.332Z,95549.06
2023-04-26T14:51:46.193Z,95543.91
2023-04-26T14:56:47.985Z,95552.38
2023-04-26T15:01:50.155Z,95547.19
2023-04-26T15:06:51.687Z,95546.09
2023-04-26T15:11:53.125Z,95540.63
2023-04-26T15:16:54.615Z,95548.91
2023-04-26T15:21:56.158Z,95555.19
2023-04-26T15:26:57.654Z,95552.38
2023-04-26T15:31:59.306Z,95550.66
2023-04-26T15:37:00.816Z,95557.44
2023-04-26T15:42:02.342Z,95557.25
2023-04-26T15:47:03.949Z,95548.16
2023-04-26T15:52:05.518Z,95553.03
2023-04-26T15:57:06.996Z,95554.31
2023-04-26T16:02:08.497Z,95549.06
2023-04-26T16:07:09.950Z,95548.41
2023-04-26T16:12:11.590Z,95546.00
2023-04-26T16:17:13.313Z,95548.19
2023-04-26T16:22:14.845Z,95550.16
2023-04-26T16:27:16.421Z,95543.19
2023-04-26T16:32:17.943Z,95552.97
2023-04-26T16:37:19.409Z,95566.28
2023-04-26T16:42:20.924Z,95557.38
2023-04-26T16:47:22.476Z,95558.28
2023-04-26T16:52:24.180Z,95564.63
2023-04-26T16:57:25.627Z,95564.63
2023-04-26T17:02:27.234Z,95562.59
2023-04-26T17:07:28.778Z,95563.41
2023-04-26T17:12:30.258Z,95561.09
2023-04-26T17:17:31.778Z,95566.44
2023-04-26T17:22:33.292Z,95569.34
2023-04-26T17:27:34.736Z,95565.47
2023-04-26T17:32:36.252Z,95556.84
2023-04-26T17:37:37.719Z,95558.50
2023-04-26T17:42:39.212Z,95569.53
2023-04-26T17:47:40.924Z,95589.16
2023-04-26T17:52:42.367Z,95592.25
2023-04-26T17:57:43.914Z,95584.66
2023-04-26T18:02:45.622Z,95601.34
2023-04-26T18:07:48.394Z,95605.81
2023-04-26T18:12:49.915Z,95610.88
2023-04-26T18:17:51.440Z,95611.59
2023-04-26T18:22:52.959Z,95612.25
2023-04-26T18:27:54.415Z,95619.94
2023-04-26T18:32:55.930Z,95624.00
2023-04-26T18:37:57.527Z,95627.00
2023-04-26T18:42:58.970Z,95631.31
2023-04-26T18:48:00.481Z,95637.00
2023-04-26T18:53:02.008Z,95638.00
2023-04-26T18:58:03.528Z,95645.63
2023-04-26T19:03:05.148Z,95653.31
2023-04-26T19:08:06.763Z,95654.81
2023-04-26T19:13:08.365Z,95662.94
2023-04-26T19:18:09.957Z,95672.91
2023-04-26T19:23:11.528Z,95681.22
2023-04-26T19:28:13.307Z,95684.38
2023-04-26T19:33:14.745Z,95675.53
2023-04-26T19:38:16.199Z,95683.34
2023-04-26T19:43:17.942Z,95684.34
2023-04-26T19:48:19.443Z,95685.19
2023-04-26T19:53:20.903Z,95697.66
2023-04-26T19:58:22.393Z,95695.31
2023-04-26T20:03:24.568Z,95699.25
2023-04-26T20:08:26.247Z,95700.63
2023-04-26T20:13:27.716Z,95710.22
2023-04-26T20:18:29.254Z,95711.22
2023-04-26T20:23:30.955Z,95712.38
2023-04-26T20:28:32.438Z,95710.88
2023-04-26T20:33:33.874Z,95710.56
2023-04-26T20:38:35.327Z,95718.03
2023-04-26T20:43:36.792Z,95718.34
2023-04-26T20:48:38.282Z,95717.81
2023-04-26T20:53:39.767Z,95710.81
2023-04-26T20:58:41.352Z,95708.31
2023-04-26T21:03:42.957Z,95713.72
2023-04-26T21:08:44.580Z,95717.59
2023-04-26T21:13:46.099Z,95711.81
2023-04-26T21:18:47.571Z,95713.13
2023-04-26T21:23:49.005Z,95713.44
2023-04-26T21:28:50.654Z,95710.81
2023-04-26T21:33:52.527Z,95717.81
2023-04-26T21:38:54.020Z,95706.88
2023-04-26T21:43:55.547Z,95712.53
2023-04-26T21:48:56.978Z,95710.53
2023-04-26T21:53:58.502Z,95717.16
2023-04-26T21:58:59.977Z,95735.03
2023-04-26T22:04:01.529Z,95732.31
2023-04-26T22:09:03.129Z,95731.19
2023-04-26T22:14:04.622Z,95728.06
2023-04-26T22:19:06.127Z,95731.72
2023-04-26T22:24:08.199Z,95729.88
2023-04-26T22:29:09.901Z,95733.38
2023-04-26T22:34:11.501Z,95746.16
2023-04-26T22:39:14.500Z,95747.19
2023-04-26T22:44:16.007Z,95756.97
2023-04-26T22:49:17.544Z,95758.97
2023-04-26T22:54:19.035Z,95769.59
2023-04-26T22:59:20.526Z,95770.06
2023-04-26T23:04:21.998Z,95770.59
2023-04-26T23:09:23.500Z,95773.91
2023-04-26T23:14:25.707Z,95781.03
2023-04-26T23:19:27.158Z,95776.78
2023-04-26T23:24:28.726Z,95773.53
2023-04-26T23:29:30.242Z,95781.44
2023-04-26T23:34:31.816Z,95767.94
2023-04-26T23:39:33.269Z,95776.50
2023-04-26T23:44:34.834Z,95776.44
2023-04-26T23:49:36.348Z,95778.78
2023-04-26T23:54:37.857Z,95774.31
2023-04-26T23:59:39.453Z,95773.91
